Caseville, Michigan
Current Conditions -  °F | °C
As of 3:59 AM on Wednesday 22 Oct 2014 (Local Time) from KBAX Reporting Station
Overcast Overcast  
Wind Chill: 40°   Ceiling: 1900
Heat Index: 43°   Visibility: 10mi
Dew Point: 40°   Wind: 5mph
Humidity: 88%   Direction: 10°N
Pressure: 30.27"   Gusts: NA
Location:  43.94°N, 83.27°W
Report Text: KBAX 220759Z AUTO 01004KT 10SM OVC019 06/04 A3027 RMK AO2 T00610043
Loading
Personal Weather Stations






























Interactive Weather Map
Tropical Storm Tracking
New forecast layout! Learn more

10-Day Weather Forecast

Advertisements
Track Severe Weather on mobile